createdAt,value
2023-05-04T00:01:19.251Z,32.55
2023-05-04T00:04:03.350Z,36.10
2023-05-04T00:06:39.299Z,36.65
2023-05-04T00:09:17.296Z,29.25
2023-05-04T00:11:54.811Z,36.75
2023-05-04T00:14:35.727Z,39.42
2023-05-04T00:17:14.302Z,36.53
2023-05-04T00:20:02.024Z,26.90
2023-05-04T00:22:38.687Z,28.55
2023-05-04T00:25:17.027Z,31.15
2023-05-04T00:28:00.877Z,27.60
2023-05-04T00:30:37.064Z,21.95
2023-05-04T00:33:20.606Z,24.80
2023-05-04T00:36:04.957Z,26.25
2023-05-04T00:38:57.525Z,23.73
2023-05-04T00:41:37.496Z,27.35
2023-05-04T00:44:18.286Z,25.55
2023-05-04T00:46:59.305Z,28.50
2023-05-04T00:49:35.549Z,23.60
2023-05-04T00:52:16.121Z,25.40
2023-05-04T00:54:54.675Z,23.80
2023-05-04T00:57:33.429Z,20.20
2023-05-04T01:00:18.129Z,25.80
2023-05-04T01:02:52.238Z,24.27
2023-05-04T01:05:32.566Z,27.50
2023-05-04T01:08:21.633Z,27.35
2023-05-04T01:11:09.324Z,20.98
2023-05-04T01:13:45.768Z,22.85
2023-05-04T01:16:25.295Z,23.80
2023-05-04T01:19:04.218Z,20.80
2023-05-04T01:21:55.481Z,24.02
2023-05-04T01:24:34.663Z,24.83
2023-05-04T01:27:12.826Z,22.65
2023-05-04T01:29:53.249Z,27.15
2023-05-04T01:32:31.344Z,22.55
2023-05-04T01:35:07.118Z,22.52
2023-05-04T01:37:47.986Z,23.75
2023-05-04T01:40:27.789Z,24.55
2023-05-04T01:43:05.404Z,23.25
2023-05-04T01:45:50.439Z,25.60
2023-05-04T01:48:30.569Z,27.27
2023-05-04T01:51:15.118Z,23.85
2023-05-04T01:53:57.959Z,22.33
2023-05-04T01:56:32.958Z,28.35
2023-05-04T01:59:12.922Z,24.02
2023-05-04T02:01:52.301Z,23.35
2023-05-04T02:04:31.596Z,22.30
2023-05-04T02:07:08.592Z,18.25
2023-05-04T02:09:52.577Z,20.98
2023-05-04T02:12:36.027Z,24.42
2023-05-04T02:15:14.723Z,24.35
2023-05-04T02:17:57.910Z,17.13
2023-05-04T02:20:39.642Z,27.80
2023-05-04T02:23:16.843Z,23.63
2023-05-04T02:26:05.972Z,20.05
2023-05-04T02:28:42.380Z,25.90
2023-05-04T02:31:22.422Z,21.10
2023-05-04T02:33:56.286Z,25.45
2023-05-04T02:36:32.137Z,26.67
2023-05-04T02:39:09.433Z,22.85
2023-05-04T02:41:51.985Z,22.65
2023-05-04T02:44:30.920Z,23.00
2023-05-04T02:47:07.095Z,24.65
2023-05-04T02:52:29.272Z,18.10
2023-05-04T02:55:07.397Z,20.40
2023-05-04T02:57:46.497Z,19.02
2023-05-04T03:00:23.521Z,18.40
2023-05-04T03:03:00.295Z,18.10
2023-05-04T03:05:38.255Z,20.55
2023-05-04T03:08:17.155Z,20.60
2023-05-04T03:10:56.140Z,18.17
2023-05-04T03:13:37.492Z,21.63
2023-05-04T03:16:17.838Z,19.63
2023-05-04T03:19:05.874Z,19.42
2023-05-04T03:21:47.703Z,17.50
2023-05-04T03:24:24.621Z,17.17
2023-05-04T03:27:21.399Z,14.10
2023-05-04T03:30:02.926Z,19.60
2023-05-04T03:32:39.082Z,17.33
2023-05-04T03:35:24.994Z,20.20
2023-05-04T03:38:04.453Z,19.33
2023-05-04T03:40:42.941Z,18.38
2023-05-04T03:43:23.593Z,17.05
2023-05-04T03:46:06.300Z,19.50
2023-05-04T03:48:45.345Z,18.98
2023-05-04T03:51:27.226Z,18.20
2023-05-04T03:54:04.518Z,16.38
2023-05-04T03:56:42.839Z,18.25
2023-05-04T03:59:28.419Z,17.67
2023-05-04T04:02:12.402Z,17.20
2023-05-04T04:04:53.869Z,19.65
2023-05-04T04:07:31.716Z,16.90
2023-05-04T04:10:15.883Z,15.75
2023-05-04T04:12:58.850Z,16.45
2023-05-04T04:15:38.183Z,17.40
2023-05-04T04:18:24.545Z,14.27
2023-05-04T04:21:06.792Z,15.65
2023-05-04T04:23:51.230Z,16.40
2023-05-04T04:26:28.944Z,17.65
2023-05-04T04:29:05.584Z,15.13
2023-05-04T04:31:44.535Z,12.43
2023-05-04T04:34:31.182Z,17.15
2023-05-04T04:37:09.221Z,14.65
2023-05-04T04:39:46.458Z,16.00
2023-05-04T04:42:24.800Z,13.52
2023-05-04T04:45:08.836Z,11.10
2023-05-04T04:47:47.024Z,14.98
2023-05-04T04:50:30.170Z,13.93
2023-05-04T04:53:10.386Z,11.73
2023-05-04T04:55:50.866Z,12.17
2023-05-04T04:58:32.521Z,11.85
2023-05-04T05:01:09.588Z,10.13
2023-05-04T05:03:51.492Z,9.90
2023-05-04T05:06:31.372Z,10.48
2023-05-04T05:09:06.551Z,12.55
2023-05-04T05:11:44.559Z,11.63
2023-05-04T05:14:26.544Z,9.45
2023-05-04T05:17:17.144Z,12.20
2023-05-04T05:19:55.282Z,10.38
2023-05-04T05:22:36.717Z,12.60
2023-05-04T05:25:20.423Z,12.53
2023-05-04T05:30:50.904Z,24.13
2023-05-04T05:36:34.769Z,22.53
2023-05-04T05:39:23.162Z,16.38
2023-05-04T05:48:08.620Z,9.35
2023-05-04T05:50:58.872Z,11.30
2023-05-04T05:53:43.602Z,9.60
2023-05-04T05:56:33.816Z,11.00
2023-05-04T05:59:19.197Z,8.48
2023-05-04T06:01:55.279Z,10.73
2023-05-04T06:04:30.597Z,11.10
2023-05-04T06:07:08.815Z,12.52
2023-05-04T06:09:47.799Z,12.10
2023-05-04T06:12:34.586Z,12.35
2023-05-04T06:15:21.391Z,11.53
2023-05-04T06:18:19.427Z,10.98
2023-05-04T06:21:28.713Z,10.43
2023-05-04T06:24:33.001Z,10.98
2023-05-04T06:27:21.381Z,10.85
2023-05-04T06:30:06.402Z,11.20
2023-05-04T06:32:48.785Z,9.45
2023-05-04T06:35:55.088Z,8.30
2023-05-04T06:38:37.966Z,10.57
2023-05-04T06:42:03.551Z,9.33
2023-05-04T06:45:12.256Z,11.85
2023-05-04T06:48:10.869Z,9.50
2023-05-04T06:50:50.814Z,7.63
2023-05-04T06:53:36.414Z,11.97
2023-05-04T06:56:14.025Z,11.40
2023-05-04T06:59:23.580Z,8.87
2023-05-04T07:02:24.302Z,20.00
2023-05-04T07:05:31.561Z,15.43
2023-05-04T07:08:35.530Z,12.82
2023-05-04T07:17:30.911Z,7.18
2023-05-04T07:20:17.066Z,9.00
2023-05-04T07:23:00.249Z,7.20
2023-05-04T07:25:43.060Z,6.20
2023-05-04T07:28:27.337Z,5.45
2023-05-04T07:31:18.750Z,6.65
2023-05-04T07:39:59.492Z,4.77
2023-05-04T07:52:29.963Z,16.05
2023-05-04T07:55:09.996Z,5.85
2023-05-04T08:26:20.211Z,4.47
2023-05-04T09:04:04.670Z,4.55
2023-05-04T09:06:53.229Z,3.50
2023-05-04T10:49:25.062Z,5.43
2023-05-04T10:52:33.263Z,4.73
2023-05-04T10:55:34.549Z,3.85
2023-05-04T10:58:27.262Z,3.85
2023-05-04T11:01:18.725Z,6.17
2023-05-04T11:04:09.414Z,3.20
2023-05-04T11:17:28.051Z,6.80
2023-05-04T11:26:42.769Z,7.05
2023-05-04T11:29:35.050Z,2.75
2023-05-04T11:44:05.792Z,4.43
2023-05-04T11:47:12.635Z,3.95
2023-05-04T11:53:20.107Z,5.30
2023-05-04T11:56:01.806Z,3.00
2023-05-04T12:01:56.795Z,8.40
2023-05-04T12:04:58.375Z,4.47
2023-05-04T12:07:40.919Z,3.97
2023-05-04T12:10:36.028Z,4.50
2023-05-04T12:16:28.600Z,4.20
2023-05-04T12:32:39.809Z,5.80
2023-05-04T12:41:53.750Z,7.97
2023-05-04T12:47:39.330Z,4.03
2023-05-04T12:50:23.042Z,4.15
2023-05-04T12:53:00.261Z,4.93
2023-05-04T12:55:45.058Z,4.28
2023-05-04T12:58:34.241Z,9.63
2023-05-04T13:01:15.715Z,6.72
2023-05-04T13:03:52.282Z,4.55
2023-05-04T13:06:31.895Z,3.50
2023-05-04T13:09:11.192Z,3.58
2023-05-04T13:15:26.190Z,2.85
2023-05-04T14:10:27.334Z,2.97
2023-05-04T14:57:16.668Z,2.60
2023-05-04T15:00:02.259Z,9.70
2023-05-04T15:02:39.320Z,4.13
2023-05-04T15:05:27.094Z,4.10
2023-05-04T15:10:41.175Z,5.13
2023-05-04T15:17:11.557Z,3.17
2023-05-04T15:23:24.365Z,2.55
2023-05-04T16:40:04.497Z,5.43
2023-05-04T16:58:51.765Z,3.60
2023-05-04T17:04:43.009Z,5.50
2023-05-04T17:07:40.396Z,36.08
2023-05-04T17:10:26.294Z,92.85
2023-05-04T17:13:13.455Z,122.38
2023-05-04T17:26:34.072Z,23.50
2023-05-04T17:35:03.250Z,8.82
2023-05-04T17:38:02.458Z,7.15
2023-05-04T17:40:40.204Z,5.03
2023-05-04T17:43:21.336Z,4.15
2023-05-04T17:46:19.033Z,9.57
2023-05-04T17:49:02.540Z,2.93
2023-05-04T17:54:48.013Z,8.23
2023-05-04T17:57:26.879Z,11.35
2023-05-04T18:00:07.825Z,6.22
2023-05-04T18:02:48.768Z,4.25
2023-05-04T18:05:26.334Z,9.25
2023-05-04T18:08:12.926Z,6.90
2023-05-04T18:10:57.322Z,5.35
2023-05-04T18:13:33.922Z,4.20
2023-05-04T18:16:13.602Z,6.50
2023-05-04T18:18:49.757Z,6.35
2023-05-04T18:21:33.634Z,7.13
2023-05-04T18:30:48.015Z,5.73
2023-05-04T18:33:26.953Z,4.00
2023-05-04T18:36:12.648Z,3.55
2023-05-04T18:38:54.696Z,4.18
2023-05-04T18:41:36.812Z,3.92
2023-05-04T18:44:26.972Z,7.10
2023-05-04T18:50:12.630Z,6.80
2023-05-04T18:55:53.144Z,5.20
2023-05-04T18:58:33.748Z,3.75
2023-05-04T19:04:07.292Z,6.07
2023-05-04T19:06:53.675Z,14.15
2023-05-04T19:09:33.410Z,4.03
2023-05-04T19:12:16.219Z,7.30
2023-05-04T19:14:52.579Z,7.65
2023-05-04T19:17:32.580Z,9.30
2023-05-04T19:20:17.242Z,10.07
2023-05-04T19:22:59.168Z,10.23
2023-05-04T19:25:39.208Z,10.90
2023-05-04T19:28:15.264Z,9.87
2023-05-04T19:30:54.410Z,7.43
2023-05-04T19:33:44.641Z,12.27
2023-05-04T19:36:23.636Z,10.15
2023-05-04T19:39:05.318Z,9.30
2023-05-04T19:41:39.867Z,9.90
2023-05-04T19:44:20.675Z,7.00
2023-05-04T19:46:59.786Z,7.45
2023-05-04T19:49:37.251Z,8.10
2023-05-04T19:52:13.777Z,7.77
2023-05-04T19:54:57.682Z,8.38
2023-05-04T19:57:33.752Z,6.23
2023-05-04T20:00:13.696Z,12.88
2023-05-04T20:02:48.753Z,9.35
2023-05-04T20:05:26.313Z,9.50
2023-05-04T20:08:05.125Z,6.38
2023-05-04T20:10:50.345Z,10.05
2023-05-04T20:13:27.427Z,5.88
2023-05-04T20:16:05.813Z,8.25
2023-05-04T20:18:45.988Z,6.88
2023-05-04T20:21:24.435Z,7.35
2023-05-04T20:23:59.673Z,6.88
2023-05-04T20:26:39.024Z,6.80
2023-05-04T20:29:17.013Z,14.70
2023-05-04T20:31:53.132Z,12.48
2023-05-04T20:34:29.952Z,8.68
2023-05-04T20:37:07.856Z,7.35
2023-05-04T20:39:50.995Z,13.10
2023-05-04T20:42:31.809Z,10.23
2023-05-04T20:45:10.434Z,13.13
2023-05-04T20:47:47.712Z,10.80
2023-05-04T20:50:27.562Z,11.15
2023-05-04T20:53:05.573Z,14.23
2023-05-04T20:55:46.925Z,15.70
2023-05-04T20:58:29.723Z,8.93
2023-05-04T21:01:08.413Z,9.40
2023-05-04T21:03:51.059Z,11.67
2023-05-04T21:06:25.565Z,10.80
2023-05-04T21:09:04.554Z,9.88
2023-05-04T21:11:41.936Z,11.95
2023-05-04T21:14:22.614Z,12.60
2023-05-04T21:16:59.615Z,12.93
2023-05-04T21:19:39.543Z,15.50
2023-05-04T21:22:20.529Z,13.05
2023-05-04T21:25:11.343Z,13.18
2023-05-04T21:27:45.804Z,13.15
2023-05-04T21:30:30.586Z,15.00
2023-05-04T21:33:09.734Z,13.05
2023-05-04T21:35:52.975Z,16.02
2023-05-04T21:38:37.826Z,13.93
2023-05-04T21:41:20.999Z,17.45
2023-05-04T21:44:01.882Z,11.83
2023-05-04T21:46:44.174Z,14.63
2023-05-04T21:49:25.806Z,13.15
2023-05-04T21:52:04.887Z,17.02
2023-05-04T21:54:53.360Z,14.75
2023-05-04T21:57:33.089Z,11.40
2023-05-04T22:00:13.196Z,12.20
2023-05-04T22:02:52.085Z,17.95
2023-05-04T22:05:34.334Z,18.67
2023-05-04T22:08:09.863Z,16.85
2023-05-04T22:10:44.900Z,19.25
2023-05-04T22:13:19.639Z,15.75
2023-05-04T22:15:58.512Z,17.50
2023-05-04T22:18:39.241Z,16.60
2023-05-04T22:21:15.867Z,17.13
2023-05-04T22:23:52.367Z,18.95
2023-05-04T22:26:28.011Z,20.20
2023-05-04T22:29:07.357Z,19.92
2023-05-04T22:31:51.278Z,20.23
2023-05-04T22:34:30.288Z,21.60
2023-05-04T22:37:09.404Z,18.67
2023-05-04T22:39:44.712Z,17.63
2023-05-04T22:42:22.151Z,22.92
2023-05-04T22:44:59.605Z,17.05
2023-05-04T22:47:37.722Z,20.85
2023-05-04T22:50:11.237Z,18.70
2023-05-04T22:52:49.599Z,20.15
2023-05-04T22:55:25.907Z,17.08
2023-05-04T22:58:18.848Z,27.70
2023-05-04T23:00:56.336Z,25.48
2023-05-04T23:03:31.685Z,19.85
2023-05-04T23:06:09.782Z,15.52
2023-05-04T23:08:48.372Z,16.83
2023-05-04T23:11:24.885Z,23.00
2023-05-04T23:14:01.359Z,17.45
2023-05-04T23:16:37.763Z,19.83
2023-05-04T23:19:13.226Z,19.95
2023-05-04T23:21:49.403Z,18.98
2023-05-04T23:27:04.309Z,17.20
2023-05-04T23:29:42.148Z,15.37
2023-05-04T23:32:18.329Z,14.93
2023-05-04T23:34:54.363Z,17.25
2023-05-04T23:40:15.950Z,18.75
2023-05-04T23:42:53.600Z,19.83
2023-05-04T23:45:33.741Z,19.08
2023-05-04T23:48:11.156Z,16.88
2023-05-04T23:50:46.863Z,19.17
2023-05-04T23:53:24.931Z,17.60
2023-05-04T23:56:05.616Z,18.35
2023-05-04T23:58:41.780Z,16.13
